createdAt,value
2023-02-11T00:00:02.370Z,100511.22
2023-02-11T00:00:14.866Z,100507.72
2023-02-11T00:00:22.176Z,100508.59
2023-02-11T00:00:29.288Z,100512.97
2023-02-11T00:00:39.035Z,100513.81
2023-02-11T00:00:58.175Z,100507.72
2023-02-11T00:01:08.129Z,100512.06
2023-02-11T00:01:19.557Z,100503.34
2023-02-11T00:01:27.576Z,100506.84
2023-02-11T00:01:35.911Z,100519.91
2023-02-11T00:01:43.012Z,100513.81
2023-02-11T00:01:50.101Z,100508.56
2023-02-11T00:02:09.260Z,100509.47
2023-02-11T00:02:16.424Z,100516.44
2023-02-11T00:02:23.879Z,100513.81
2023-02-11T00:02:33.184Z,100516.44
2023-02-11T00:02:40.804Z,100511.19
2023-02-11T00:02:48.182Z,100505.94
2023-02-11T00:03:07.344Z,100503.31
2023-02-11T00:03:14.399Z,100513.81
2023-02-11T00:03:21.517Z,100510.31
2023-02-11T00:03:28.719Z,100515.53
2023-02-11T00:03:48.030Z,100510.34
2023-02-11T00:03:56.430Z,100511.22
2023-02-11T00:04:04.290Z,100511.22
2023-02-11T00:04:11.376Z,100513.81
2023-02-11T00:04:18.411Z,100508.59
2023-02-11T00:04:33.115Z,100505.09
2023-02-11T00:04:40.180Z,100505.97
2023-02-11T00:05:01.572Z,100505.97
2023-02-11T00:05:08.708Z,100506.84
2023-02-11T00:05:17.010Z,100505.06
2023-02-11T00:05:24.048Z,100508.59
2023-02-11T00:05:31.187Z,100501.59
2023-02-11T00:05:38.399Z,100513.78
2023-02-11T00:05:58.747Z,100504.19
2023-02-11T00:06:09.313Z,100507.69
2023-02-11T00:06:16.815Z,100510.31
2023-02-11T00:06:25.516Z,100506.84
2023-02-11T00:06:33.556Z,100502.47
2023-02-11T00:06:40.611Z,100509.47
2023-02-11T00:06:59.616Z,100511.19
2023-02-11T00:07:06.619Z,100509.44
2023-02-11T00:07:13.682Z,100512.06
2023-02-11T00:07:20.728Z,100502.47
2023-02-11T00:07:29.094Z,100499.88
2023-02-11T00:07:44.205Z,100500.75
2023-02-11T00:07:51.278Z,100505.09
2023-02-11T00:07:58.353Z,100508.59
2023-02-11T00:08:17.702Z,100495.50
2023-02-11T00:08:25.353Z,100493.75
2023-02-11T00:08:32.473Z,100495.50
2023-02-11T00:08:39.585Z,100501.63
2023-02-11T00:08:55.035Z,100501.59
2023-02-11T00:09:02.178Z,100494.63
2023-02-11T00:09:10.709Z,100497.25
2023-02-11T00:09:17.869Z,100496.38
2023-02-11T00:09:32.339Z,100493.78
2023-02-11T00:09:39.376Z,100499.88
2023-02-11T00:09:53.442Z,100495.53
2023-02-11T00:10:00.543Z,100496.41
2023-02-11T00:10:09.041Z,100495.53
2023-02-11T00:10:23.238Z,100492.91
2023-02-11T00:10:30.401Z,100500.75
2023-02-11T00:10:51.832Z,100496.41
2023-02-11T00:10:59.432Z,100499.03
2023-02-11T00:11:06.562Z,100495.53
2023-02-11T00:11:14.842Z,100500.75
2023-02-11T00:11:22.696Z,100496.38
2023-02-11T00:11:30.662Z,100498.97
2023-02-11T00:11:38.806Z,100496.38
2023-02-11T00:11:58.011Z,100491.16
2023-02-11T00:12:05.354Z,100492.88
2023-02-11T00:12:12.475Z,100497.22
2023-02-11T00:12:19.752Z,100495.50
2023-02-11T00:12:38.927Z,100494.63
2023-02-11T00:12:45.992Z,100496.34
2023-02-11T00:12:53.146Z,100491.16
2023-02-11T00:13:01.386Z,100493.72
2023-02-11T00:13:08.442Z,100490.22
2023-02-11T00:13:27.841Z,100488.50
2023-02-11T00:13:35.002Z,100490.25
2023-02-11T00:13:42.202Z,100488.50
2023-02-11T00:13:49.429Z,100493.75
2023-02-11T00:14:05.006Z,100497.22
2023-02-11T00:14:12.298Z,100491.97
2023-02-11T00:14:20.450Z,100492.84
2023-02-11T00:14:39.674Z,100497.19
2023-02-11T00:14:46.779Z,100491.97
2023-02-11T00:14:53.867Z,100489.38
2023-02-11T00:15:01.012Z,100492.84
2023-02-11T00:15:08.682Z,100491.13
2023-02-11T00:15:27.679Z,100492.03
2023-02-11T00:15:34.772Z,100492.88
2023-02-11T00:15:41.856Z,100491.16
2023-02-11T00:15:49.425Z,100490.28
2023-02-11T00:15:57.990Z,100492.00
2023-02-11T00:16:14.783Z,100498.13
2023-02-11T00:16:22.262Z,100494.63
2023-02-11T00:16:29.639Z,100491.13
2023-02-11T00:16:48.797Z,100493.72
2023-02-11T00:16:55.958Z,100496.34
2023-02-11T00:17:04.137Z,100494.59
2023-02-11T00:17:11.227Z,100497.25
2023-02-11T00:17:18.298Z,100492.84
2023-02-11T00:17:37.360Z,100487.63
2023-02-11T00:17:44.439Z,100493.72
2023-02-11T00:17:51.547Z,100497.22
2023-02-11T00:17:58.854Z,100492.88
2023-02-11T00:18:13.039Z,100490.25
2023-02-11T00:18:20.136Z,100498.09
2023-02-11T00:18:28.002Z,100494.63
2023-02-11T00:18:50.625Z,100492.84
2023-02-11T00:18:59.396Z,100492.84
2023-02-11T00:19:06.776Z,100485.88
2023-02-11T00:19:13.828Z,100491.09
2023-02-11T00:19:20.922Z,100488.47
2023-02-11T00:19:28.194Z,100492.00
2023-02-11T00:19:49.483Z,100493.75
2023-02-11T00:19:56.496Z,100479.78
2023-02-11T00:20:07.908Z,100485.88
2023-02-11T00:20:16.560Z,100490.25
2023-02-11T00:20:23.594Z,100486.78
2023-02-11T00:20:30.706Z,100489.38
2023-02-11T00:20:39.759Z,100485.88
2023-02-11T00:20:58.776Z,100483.25
2023-02-11T00:21:06.601Z,100491.97
2023-02-11T00:21:15.161Z,100479.78
2023-02-11T00:21:23.180Z,100488.53
2023-02-11T00:21:30.393Z,100485.03
2023-02-11T00:21:38.494Z,100483.28
2023-02-11T00:21:52.486Z,100482.38
2023-02-11T00:21:59.570Z,100481.50
2023-02-11T00:22:18.702Z,100481.50
2023-02-11T00:22:25.777Z,100491.09
2023-02-11T00:22:32.836Z,100488.50
2023-02-11T00:22:39.992Z,100490.25
2023-02-11T00:22:59.088Z,100481.53
2023-02-11T00:23:06.157Z,100483.25
2023-02-11T00:23:14.685Z,100474.53
2023-02-11T00:23:21.778Z,100473.66
2023-02-11T00:23:28.945Z,100483.28
2023-02-11T00:23:43.160Z,100477.19
2023-02-11T00:23:50.333Z,100479.78
2023-02-11T00:23:58.730Z,100482.41
2023-02-11T00:24:18.114Z,100482.41
2023-02-11T00:24:25.222Z,100478.06
2023-02-11T00:24:32.405Z,100477.19
2023-02-11T00:24:40.498Z,100483.25
2023-02-11T00:24:47.744Z,100485.00
2023-02-11T00:25:01.993Z,100474.56
2023-02-11T00:25:09.094Z,100475.44
2023-02-11T00:25:28.229Z,100478.91
2023-02-11T00:25:38.661Z,100473.69
2023-02-11T00:25:46.136Z,100480.66
2023-02-11T00:25:53.392Z,100481.53
2023-02-11T00:26:01.625Z,100477.19
2023-02-11T00:26:15.209Z,100473.69
2023-02-11T00:26:24.350Z,100477.16
2023-02-11T00:26:33.351Z,100470.19
2023-02-11T00:26:40.456Z,100475.41
2023-02-11T00:26:59.676Z,100478.00
2023-02-11T00:27:06.876Z,100467.56
2023-02-11T00:27:14.966Z,100473.63
2023-02-11T00:27:22.156Z,100478.00
2023-02-11T00:27:29.244Z,100468.41
2023-02-11T00:27:44.196Z,100464.91
2023-02-11T00:27:52.487Z,100473.66
2023-02-11T00:27:59.581Z,100479.75
2023-02-11T00:28:20.712Z,100466.66
2023-02-11T00:28:27.903Z,100475.41
2023-02-11T00:28:36.121Z,100471.03
2023-02-11T00:28:43.479Z,100473.63
2023-02-11T00:28:51.713Z,100468.34
2023-02-11T00:28:59.225Z,100471.84
2023-02-11T00:29:20.766Z,100471.91
2023-02-11T00:29:27.874Z,100474.50
2023-02-11T00:29:35.175Z,100469.25
2023-02-11T00:29:43.492Z,100466.66
2023-02-11T00:29:50.518Z,100472.78
2023-02-11T00:30:12.809Z,100469.25
2023-02-11T00:30:20.008Z,100473.63
2023-02-11T00:30:27.108Z,100468.44
2023-02-11T00:30:34.291Z,100468.44
2023-02-11T00:30:41.467Z,100468.44
2023-02-11T00:30:54.586Z,100470.19
2023-02-11T00:31:02.713Z,100473.66
2023-02-11T00:31:09.988Z,100461.47
2023-02-11T00:31:18.563Z,100470.16
2023-02-11T00:31:38.959Z,100469.25
2023-02-11T00:31:46.257Z,100471.03
2023-02-11T00:31:53.418Z,100451.84
2023-02-11T00:32:05.246Z,100464.91
2023-02-11T00:32:12.401Z,100464.06
2023-02-11T00:32:19.462Z,100456.19
2023-02-11T00:32:39.933Z,100465.81
2023-02-11T00:32:47.014Z,100465.78
2023-02-11T00:32:54.087Z,100465.81
2023-02-11T00:33:01.280Z,100470.16
2023-02-11T00:33:08.331Z,100467.53
2023-02-11T00:33:27.391Z,100468.41
2023-02-11T00:33:34.445Z,100462.28
2023-02-11T00:33:42.051Z,100459.69
2023-02-11T00:33:49.325Z,100462.31
2023-02-11T00:34:09.391Z,100458.81
2023-02-11T00:34:16.916Z,100462.31
2023-02-11T00:34:24.031Z,100451.84
2023-02-11T00:34:31.122Z,100468.41
2023-02-11T00:34:38.357Z,100464.06
2023-02-11T00:34:57.867Z,100461.44
2023-02-11T00:35:06.849Z,100461.44
2023-02-11T00:35:13.888Z,100457.06
2023-02-11T00:35:21.006Z,100460.56
2023-02-11T00:35:30.857Z,100459.69
2023-02-11T00:35:39.149Z,100456.22
2023-02-11T00:35:48.446Z,100450.97
2023-02-11T00:36:09.601Z,100461.41
2023-02-11T00:36:18.195Z,100456.19
2023-02-11T00:36:28.169Z,100458.81
2023-02-11T00:36:35.314Z,100452.72
2023-02-11T00:36:43.459Z,100455.31
2023-02-11T00:36:50.583Z,100457.97
2023-02-11T00:36:57.723Z,100452.72
2023-02-11T00:37:13.693Z,100454.47
2023-02-11T00:37:22.342Z,100450.97
2023-02-11T00:37:29.462Z,100450.09
2023-02-11T00:37:43.623Z,100449.19
2023-02-11T00:37:53.154Z,100442.22
2023-02-11T00:38:00.520Z,100451.84
2023-02-11T00:38:14.674Z,100454.47
2023-02-11T00:38:21.741Z,100447.47
2023-02-11T00:38:28.771Z,100447.50
2023-02-11T00:38:50.095Z,100444.00
2023-02-11T00:38:57.960Z,100444.84
2023-02-11T00:39:05.250Z,100442.25
2023-02-11T00:39:12.374Z,100440.53
2023-02-11T00:39:19.491Z,100441.38
2023-02-11T00:39:39.093Z,100437.88
2023-02-11T00:39:46.194Z,100438.75
2023-02-11T00:39:53.260Z,100436.16
2023-02-11T00:40:00.402Z,100437.00
2023-02-11T00:40:08.869Z,100435.25
2023-02-11T00:40:28.178Z,100435.25
2023-02-11T00:40:35.351Z,100430.00
2023-02-11T00:40:43.882Z,100427.41
2023-02-11T00:40:50.990Z,100430.00
2023-02-11T00:40:58.094Z,100436.94
2023-02-11T00:41:18.048Z,100437.00
2023-02-11T00:41:25.280Z,100435.22
2023-02-11T00:41:33.701Z,100434.38
2023-02-11T00:41:40.920Z,100431.78
2023-02-11T00:41:48.006Z,100435.25
2023-02-11T00:42:02.046Z,100429.13
2023-02-11T00:42:09.393Z,100434.38
2023-02-11T00:42:28.630Z,100428.25
2023-02-11T00:42:36.214Z,100433.50
2023-02-11T00:42:43.353Z,100430.88
2023-02-11T00:42:50.424Z,100435.25
2023-02-11T00:42:57.750Z,100430.94
2023-02-11T00:43:17.845Z,100417.81
2023-02-11T00:43:25.248Z,100424.78
2023-02-11T00:43:32.422Z,100428.28
2023-02-11T00:43:39.690Z,100419.56
2023-02-11T00:43:59.391Z,100423.91
2023-02-11T00:44:06.467Z,100422.19
2023-02-11T00:44:13.577Z,100423.03
2023-02-11T00:44:21.305Z,100425.63
2023-02-11T00:44:28.358Z,100423.00
2023-02-11T00:44:42.506Z,100416.03
2023-02-11T00:44:50.984Z,100422.19
2023-02-11T00:44:58.243Z,100416.09
2023-02-11T00:45:17.590Z,100421.31
2023-02-11T00:45:24.683Z,100426.56
2023-02-11T00:45:31.873Z,100414.38
2023-02-11T00:45:38.965Z,100416.97
2023-02-11T00:45:58.330Z,100423.06
2023-02-11T00:46:05.919Z,100419.56
2023-02-11T00:46:14.542Z,100412.63
2023-02-11T00:46:21.823Z,100416.13
2023-02-11T00:46:29.178Z,100422.22
2023-02-11T00:46:43.275Z,100423.06
2023-02-11T00:46:50.830Z,100422.22
2023-02-11T00:46:57.881Z,100420.47
2023-02-11T00:47:17.015Z,100424.81
2023-02-11T00:47:24.792Z,100422.16
2023-02-11T00:47:31.867Z,100423.03
2023-02-11T00:47:41.170Z,100420.44
2023-02-11T00:47:48.423Z,100419.59
2023-02-11T00:48:08.735Z,100417.84
2023-02-11T00:48:15.846Z,100424.81
2023-02-11T00:48:22.964Z,100428.31
2023-02-11T00:48:30.286Z,100423.09
2023-02-11T00:48:49.363Z,100422.22
2023-02-11T00:48:58.062Z,100424.81
2023-02-11T00:49:05.224Z,100428.31
2023-02-11T00:49:12.343Z,100429.19
2023-02-11T00:49:20.488Z,100429.16
2023-02-11T00:49:28.922Z,100423.94
2023-02-11T00:49:49.074Z,100426.56
2023-02-11T00:49:56.174Z,100422.22
2023-02-11T00:50:05.339Z,100428.28
2023-02-11T00:50:14.067Z,100428.31
2023-02-11T00:50:21.101Z,100423.94
2023-02-11T00:50:28.673Z,100423.09
2023-02-11T00:50:48.124Z,100429.16
2023-02-11T00:50:55.275Z,100419.59
2023-02-11T00:51:04.274Z,100417.88
2023-02-11T00:51:11.657Z,100423.09
2023-02-11T00:51:18.934Z,100420.47
2023-02-11T00:51:39.092Z,100424.84
2023-02-11T00:51:46.384Z,100423.13
2023-02-11T00:51:53.539Z,100429.22
2023-02-11T00:52:00.660Z,100424.84
2023-02-11T00:52:07.783Z,100423.97
2023-02-11T00:52:28.079Z,100424.00
2023-02-11T00:52:35.154Z,100431.84
2023-02-11T00:52:42.773Z,100422.25
2023-02-11T00:52:49.901Z,100430.09
2023-02-11T00:53:04.032Z,100424.84
2023-02-11T00:53:11.275Z,100427.47
2023-02-11T00:53:19.256Z,100427.47
2023-02-11T00:53:34.408Z,100435.31
2023-02-11T00:53:41.814Z,100432.72
2023-02-11T00:53:50.118Z,100433.56
2023-02-11T00:54:09.184Z,100428.31
2023-02-11T00:54:16.498Z,100437.03
2023-02-11T00:54:23.696Z,100431.81
2023-02-11T00:54:30.904Z,100437.03
2023-02-11T00:54:38.000Z,100435.31
2023-02-11T00:54:58.568Z,100433.56
2023-02-11T00:55:05.944Z,100438.81
2023-02-11T00:55:13.128Z,100432.72
2023-02-11T00:55:20.183Z,100434.44
2023-02-11T00:55:40.334Z,100430.97
2023-02-11T00:55:47.591Z,100437.06
2023-02-11T00:55:54.863Z,100432.69
2023-02-11T00:56:02.112Z,100431.81
2023-02-11T00:56:09.239Z,100434.47
2023-02-11T00:56:23.401Z,100438.81
2023-02-11T00:56:30.573Z,100440.53
2023-02-11T00:56:49.810Z,100430.97
2023-02-11T00:56:57.533Z,100431.84
2023-02-11T00:57:05.007Z,100430.09
2023-02-11T00:57:12.185Z,100430.94
2023-02-11T00:57:19.502Z,100430.91
2023-02-11T00:57:34.789Z,100430.94
2023-02-11T00:57:41.873Z,100438.78
2023-02-11T00:57:48.941Z,100438.78
2023-02-11T00:58:04.157Z,100432.69
2023-02-11T00:58:11.219Z,100437.06
2023-02-11T00:58:20.399Z,100432.69
2023-02-11T00:58:30.452Z,100432.69
2023-02-11T00:58:39.918Z,100429.22
2023-02-11T00:58:48.083Z,100427.47
2023-02-11T00:59:07.153Z,100425.72
2023-02-11T00:59:14.265Z,100431.84
2023-02-11T00:59:24.316Z,100428.34
2023-02-11T00:59:31.407Z,100424.88
2023-02-11T00:59:38.407Z,100424.84
2023-02-11T00:59:53.568Z,100430.97
2023-02-11T01:00:00.683Z,100433.56
2023-02-11T01:00:14.969Z,100426.63
2023-02-11T01:00:23.361Z,100420.50
2023-02-11T01:00:30.448Z,100419.66
2023-02-11T01:00:49.630Z,100423.13
2023-02-11T01:00:56.822Z,100424.00
2023-02-11T01:01:05.432Z,100424.00
2023-02-11T01:01:13.036Z,100425.72
2023-02-11T01:01:20.409Z,100416.13
2023-02-11T01:01:35.861Z,100420.53
2023-02-11T01:01:43.007Z,100429.22
2023-02-11T01:01:50.369Z,100423.13
2023-02-11T01:02:04.532Z,100419.63
2023-02-11T01:02:11.917Z,100420.53
2023-02-11T01:02:23.163Z,100419.63
2023-02-11T01:02:30.506Z,100422.25
2023-02-11T01:02:50.811Z,100416.16
2023-02-11T01:02:59.078Z,100428.34
2023-02-11T01:03:06.326Z,100418.75
2023-02-11T01:03:15.459Z,100418.78
2023-02-11T01:03:22.576Z,100418.78
2023-02-11T01:03:29.988Z,100423.13
2023-02-11T01:03:49.136Z,100419.63
2023-02-11T01:03:56.286Z,100422.22
2023-02-11T01:04:03.696Z,100419.63
2023-02-11T01:04:10.961Z,100424.84
2023-02-11T01:04:19.069Z,100422.22
2023-02-11T01:04:33.226Z,100420.47
2023-02-11T01:04:40.393Z,100421.31
2023-02-11T01:05:00.238Z,100416.97
2023-02-11T01:05:07.780Z,100415.22
2023-02-11T01:05:16.335Z,100415.22
2023-02-11T01:05:23.495Z,100410.00
2023-02-11T01:05:31.125Z,100418.72
2023-02-11T01:05:39.366Z,100419.56
2023-02-11T01:05:53.652Z,100410.88
2023-02-11T01:06:00.819Z,100417.84
2023-02-11T01:06:08.763Z,100419.59
2023-02-11T01:06:18.072Z,100417.00
2023-02-11T01:06:32.375Z,100415.25
2023-02-11T01:06:39.508Z,100415.25
2023-02-11T01:06:59.776Z,100416.09
2023-02-11T01:07:06.866Z,100415.22
2023-02-11T01:07:14.016Z,100409.97
2023-02-11T01:07:21.274Z,100416.97
2023-02-11T01:07:29.557Z,100415.25
2023-02-11T01:07:48.583Z,100412.63
2023-02-11T01:07:56.522Z,100409.13
2023-02-11T01:08:04.146Z,100414.38
2023-02-11T01:08:11.229Z,100410.84
2023-02-11T01:08:19.551Z,100409.97
2023-02-11T01:08:39.545Z,100409.09
2023-02-11T01:08:48.372Z,100415.19
2023-02-11T01:08:55.534Z,100417.81
2023-02-11T01:09:02.880Z,100408.25
2023-02-11T01:09:09.972Z,100410.88
2023-02-11T01:09:23.985Z,100409.16
2023-02-11T01:09:32.150Z,100416.97
2023-02-11T01:09:39.316Z,100407.41
2023-02-11T01:09:58.456Z,100406.50
2023-02-11T01:10:05.814Z,100408.25
2023-02-11T01:10:12.904Z,100416.97
2023-02-11T01:10:20.068Z,100413.50
2023-02-11T01:10:34.410Z,100407.41
2023-02-11T01:10:41.556Z,100410.00
2023-02-11T01:10:54.012Z,100414.38
2023-02-11T01:11:02.785Z,100415.25
2023-02-11T01:11:13.792Z,100410.94
2023-02-11T01:11:21.685Z,100409.19
2023-02-11T01:11:29.021Z,100415.28
2023-02-11T01:11:48.115Z,100409.16
2023-02-11T01:11:55.526Z,100407.44
2023-02-11T01:12:02.689Z,100415.28
2023-02-11T01:12:10.781Z,100411.78
2023-02-11T01:12:19.705Z,100415.25
2023-02-11T01:12:36.283Z,100414.38
2023-02-11T01:12:43.928Z,100408.28
2023-02-11T01:12:51.038Z,100418.75
2023-02-11T01:12:58.071Z,100411.78
2023-02-11T01:13:13.877Z,100417.88
2023-02-11T01:13:21.333Z,100407.44
2023-02-11T01:13:30.335Z,100417.00
2023-02-11T01:13:45.201Z,100412.66
2023-02-11T01:13:52.734Z,100410.00
2023-02-11T01:13:59.867Z,100412.63
2023-02-11T01:14:18.997Z,100418.75
2023-02-11T01:14:26.255Z,100417.00
2023-02-11T01:14:33.522Z,100417.03
2023-02-11T01:14:41.101Z,100415.28
2023-02-11T01:14:48.721Z,100409.16
2023-02-11T01:15:10.189Z,100411.81
2023-02-11T01:15:18.807Z,100418.78
2023-02-11T01:15:26.058Z,100411.78
2023-02-11T01:15:33.649Z,100414.38
2023-02-11T01:15:41.210Z,100413.53
2023-02-11T01:15:49.811Z,100411.75
2023-02-11T01:15:58.186Z,100415.22
2023-02-11T01:16:14.990Z,100416.97
2023-02-11T01:16:23.432Z,100418.72
2023-02-11T01:16:32.000Z,100416.13
2023-02-11T01:16:39.086Z,100416.13
2023-02-11T01:16:53.657Z,100418.72
2023-02-11T01:17:01.645Z,100417.84
2023-02-11T01:17:08.781Z,100422.22
2023-02-11T01:17:30.304Z,100421.31
2023-02-11T01:17:37.640Z,100417.00
2023-02-11T01:17:45.161Z,100416.09
2023-02-11T01:17:53.329Z,100415.25
2023-02-11T01:18:00.489Z,100417.84
2023-02-11T01:18:19.527Z,100415.22
2023-02-11T01:18:26.917Z,100411.72
2023-02-11T01:18:34.208Z,100414.38
2023-02-11T01:18:42.044Z,100423.06
2023-02-11T01:18:50.358Z,100409.97
2023-02-11T01:18:58.956Z,100412.59
2023-02-11T01:19:13.580Z,100414.31
2023-02-11T01:19:20.695Z,100414.34
2023-02-11T01:19:27.876Z,100412.63
2023-02-11T01:19:48.105Z,100412.63
2023-02-11T01:19:55.385Z,100410.88
2023-02-11T01:20:03.164Z,100414.31
2023-02-11T01:20:14.433Z,100410.00
2023-02-11T01:20:24.785Z,100416.09
2023-02-11T01:20:32.280Z,100416.09
2023-02-11T01:20:39.408Z,100416.09
2023-02-11T01:20:53.933Z,100413.47
2023-02-11T01:21:02.072Z,100409.13
2023-02-11T01:21:09.145Z,100411.72
2023-02-11T01:21:24.013Z,100413.44
2023-02-11T01:21:31.588Z,100416.94
2023-02-11T01:21:38.621Z,100409.94
2023-02-11T01:21:52.739Z,100408.19
2023-02-11T01:22:02.323Z,100409.97
2023-02-11T01:22:09.529Z,100408.19
2023-02-11T01:22:24.964Z,100408.19
2023-02-11T01:22:32.133Z,100410.81
2023-02-11T01:22:39.772Z,100409.06
2023-02-11T01:22:55.774Z,100412.53
2023-02-11T01:23:02.854Z,100411.66
2023-02-11T01:23:10.001Z,100409.91
2023-02-11T01:23:29.236Z,100403.84
2023-02-11T01:23:36.386Z,100397.75
2023-02-11T01:23:45.043Z,100409.94
2023-02-11T01:23:53.362Z,100401.22
2023-02-11T01:24:00.690Z,100402.13
2023-02-11T01:24:07.921Z,100405.63
2023-02-11T01:24:24.806Z,100409.94
2023-02-11T01:24:31.934Z,100405.59
2023-02-11T01:24:40.056Z,100396.03
2023-02-11T01:24:48.143Z,100400.38
2023-02-11T01:25:02.382Z,100402.09
2023-02-11T01:25:09.892Z,100407.34
2023-02-11T01:25:25.179Z,100400.34
2023-02-11T01:25:32.369Z,100398.59
2023-02-11T01:25:39.444Z,100403.84
2023-02-11T01:25:58.924Z,100402.09
2023-02-11T01:26:09.183Z,100406.47
2023-02-11T01:26:16.427Z,100404.72
2023-02-11T01:26:24.090Z,100403.00
2023-02-11T01:26:32.313Z,100400.38
2023-02-11T01:26:39.686Z,100396.88
2023-02-11T01:26:58.754Z,100399.50
2023-02-11T01:27:05.825Z,100404.72
2023-02-11T01:27:12.885Z,100396.88
2023-02-11T01:27:19.956Z,100399.50
2023-02-11T01:27:34.350Z,100402.97
2023-02-11T01:27:41.530Z,100403.84
2023-02-11T01:27:48.653Z,100397.75
2023-02-11T01:28:17.120Z,100403.88
2023-02-11T01:28:25.352Z,100396.91
2023-02-11T01:28:33.282Z,100399.56
2023-02-11T01:28:40.567Z,100396.94
2023-02-11T01:28:47.981Z,100402.16
2023-02-11T01:28:55.272Z,100399.53
2023-02-11T01:29:02.362Z,100394.28
2023-02-11T01:29:09.565Z,100400.38
2023-02-11T01:29:28.636Z,100392.56
2023-02-11T01:29:36.838Z,100394.31
2023-02-11T01:29:43.933Z,100402.16
2023-02-11T01:29:51.043Z,100399.56
2023-02-11T01:30:00.833Z,100396.94
2023-02-11T01:30:09.261Z,100400.41
2023-02-11T01:30:28.347Z,100396.91
2023-02-11T01:30:35.405Z,100402.97
2023-02-11T01:30:44.511Z,100395.13
2023-02-11T01:30:51.918Z,100397.75
2023-02-11T01:31:00.147Z,100389.88
2023-02-11T01:31:08.389Z,100387.25
2023-02-11T01:31:27.914Z,100389.00
2023-02-11T01:31:35.168Z,100398.56
2023-02-11T01:31:42.327Z,100392.53
2023-02-11T01:31:49.545Z,100391.66
2023-02-11T01:32:08.845Z,100395.16
2023-02-11T01:32:15.999Z,100395.16
2023-02-11T01:32:23.174Z,100394.28
2023-02-11T01:32:30.238Z,100396.88
2023-02-11T01:32:44.631Z,100393.41
2023-02-11T01:32:52.728Z,100393.41
2023-02-11T01:32:59.797Z,100389.06
2023-02-11T01:33:14.355Z,100395.16
2023-02-11T01:33:21.572Z,100390.78
2023-02-11T01:33:28.685Z,100392.53
2023-02-11T01:33:42.882Z,100389.06
2023-02-11T01:33:50.244Z,100385.59
2023-02-11T01:34:04.374Z,100382.94
2023-02-11T01:34:11.707Z,100389.03
2023-02-11T01:34:19.842Z,100382.03
2023-02-11T01:34:39.240Z,100382.06
2023-02-11T01:34:46.401Z,100386.41
2023-02-11T01:34:53.605Z,100382.03
2023-02-11T01:35:00.961Z,100390.78
2023-02-11T01:35:08.755Z,100387.28
2023-02-11T01:35:29.872Z,100383.75
2023-02-11T01:35:38.106Z,100385.50
2023-02-11T01:35:46.054Z,100384.59
2023-02-11T01:35:53.897Z,100395.06
2023-02-11T01:36:04.123Z,100384.63
2023-02-11T01:36:12.035Z,100381.13
2023-02-11T01:36:19.406Z,100379.41
2023-02-11T01:36:33.800Z,100389.03
2023-02-11T01:36:41.537Z,100378.59
2023-02-11T01:36:48.612Z,100382.06
2023-02-11T01:37:05.318Z,100385.56
2023-02-11T01:37:12.963Z,100388.19
2023-02-11T01:37:20.438Z,100387.31
2023-02-11T01:37:29.610Z,100377.72
2023-02-11T01:37:50.000Z,100383.84
2023-02-11T01:37:58.400Z,100389.06
2023-02-11T01:38:06.387Z,100383.84
2023-02-11T01:38:20.354Z,100382.06
2023-02-11T01:38:27.660Z,100377.69
2023-02-11T01:38:35.190Z,100382.97
2023-02-11T01:38:44.721Z,100386.47
2023-02-11T01:38:52.982Z,100381.25
2023-02-11T01:39:00.782Z,100379.47
2023-02-11T01:39:08.769Z,100376.84
2023-02-11T01:39:27.945Z,100366.38
2023-02-11T01:39:35.312Z,100378.59
2023-02-11T01:39:42.407Z,100366.41
2023-02-11T01:39:49.499Z,100372.47
2023-02-11T01:39:58.163Z,100380.34
2023-02-11T01:40:08.557Z,100371.63
2023-02-11T01:40:25.345Z,100375.06
2023-02-11T01:40:32.564Z,100375.06
2023-02-11T01:40:46.689Z,100379.44
2023-02-11T01:40:55.254Z,100372.44
2023-02-11T01:41:03.863Z,100365.47
2023-02-11T01:41:15.888Z,100373.34
2023-02-11T01:41:23.134Z,100377.72
2023-02-11T01:41:30.227Z,100364.66
2023-02-11T01:41:38.264Z,100373.38
2023-02-11T01:41:57.685Z,100366.38
2023-02-11T01:42:04.823Z,100363.75
2023-02-11T01:42:15.890Z,100368.09
2023-02-11T01:42:23.426Z,100367.22
2023-02-11T01:42:31.283Z,100377.69
2023-02-11T01:42:39.106Z,100364.59
2023-02-11T01:42:55.230Z,100372.44
2023-02-11T01:43:02.362Z,100366.34
2023-02-11T01:43:10.699Z,100362.88
2023-02-11T01:43:18.210Z,100364.59
2023-02-11T01:43:40.329Z,100361.94
2023-02-11T01:43:48.236Z,100361.06
2023-02-11T01:43:55.329Z,100361.94
2023-02-11T01:44:17.190Z,100364.56
2023-02-11T01:44:26.375Z,100360.25
2023-02-11T01:44:36.918Z,100362.88
2023-02-11T01:44:44.474Z,100361.13
2023-02-11T01:44:52.404Z,100360.25
2023-02-11T01:45:00.545Z,100357.66
2023-02-11T01:45:22.483Z,100353.28
2023-02-11T01:45:56.606Z,100361.13
2023-02-11T01:46:06.769Z,100343.75
2023-02-11T01:46:28.894Z,100354.22
2023-02-11T01:46:36.660Z,100350.72
2023-02-11T01:46:44.170Z,100349.84
2023-02-11T01:46:51.322Z,100342.88
2023-02-11T01:47:00.017Z,100347.22
2023-02-11T01:47:07.443Z,100346.38
2023-02-11T01:47:14.591Z,100340.28
2023-02-11T01:47:21.834Z,100344.63
2023-02-11T01:47:29.279Z,100343.75
2023-02-11T01:47:37.371Z,100348.97
2023-02-11T01:47:44.424Z,100339.38
2023-02-11T01:47:51.859Z,100349.84
2023-02-11T01:47:58.894Z,100341.13
2023-02-11T01:48:06.030Z,100346.34
2023-02-11T01:48:14.180Z,100344.63
2023-02-11T01:48:22.840Z,100350.72
2023-02-11T01:48:32.258Z,100342.88
2023-02-11T01:48:41.684Z,100344.63
2023-02-11T01:48:50.617Z,100347.25
2023-02-11T01:49:04.001Z,100345.50
2023-02-11T01:49:12.572Z,100346.38
2023-02-11T01:49:21.874Z,100349.81
2023-02-11T01:49:32.287Z,100348.91
2023-02-11T01:49:41.112Z,100348.03
2023-02-11T01:49:50.938Z,100346.28
2023-02-11T01:49:59.500Z,100348.06
2023-02-11T01:50:08.258Z,100348.06
2023-02-11T01:50:15.482Z,100347.19
2023-02-11T01:50:22.664Z,100350.66
2023-02-11T01:50:31.645Z,100345.44
2023-02-11T01:50:42.435Z,100349.81
2023-02-11T01:50:51.421Z,100356.75
2023-02-11T01:51:01.578Z,100350.66
2023-02-11T01:51:11.569Z,100352.41
2023-02-11T01:51:22.158Z,100353.28
2023-02-11T01:51:31.609Z,100347.19
2023-02-11T01:51:40.475Z,100353.28
2023-02-11T01:51:51.769Z,100354.13
2023-02-11T01:52:02.544Z,100354.13
2023-02-11T01:52:11.405Z,100353.28
2023-02-11T01:52:22.265Z,100351.53
2023-02-11T01:52:32.386Z,100355.91
2023-02-11T01:52:41.187Z,100352.47
2023-02-11T01:53:16.179Z,100354.22
2023-02-11T01:53:43.653Z,100355.91
2023-02-11T01:54:10.192Z,100352.41
2023-02-11T01:54:53.572Z,100354.13
2023-02-11T01:55:20.541Z,100351.59
2023-02-11T01:56:02.015Z,100346.34
2023-02-11T01:56:27.500Z,100348.91
2023-02-11T01:56:55.177Z,100341.97
2023-02-11T01:57:21.365Z,100346.38